Flight Track Log - Related Links

Times and Time Zones

All times are in EDT time to prevent confusion due to time zone crossing. See the UAL335 flight status page for this flight to view local times or setup timezone preferences in your user account.

Time Position Orientation Groundspeed Altitude Reporting Facility
EDT Latitude Longitude Course Direction KTS MPH feet Rate Location/Type
Sun 12:19:58 PM 39.8764 -104.5933 110° East 201 231 6,700  Level Denver Center
Sun 12:21:01 PM 39.8506 -104.5128 113° Southeast 236 272 8,300 1,776 Climbing Denver Center
Sun 12:22:00 PM 39.6848 -104.2100 108° East  Level Estimated
Sun 12:22:03 PM 39.8203 -104.4233 114° Southeast 271 312 10,400  Level Denver Center
Sun 12:23:00 PM 39.6255 -104.0561 108° East  Level Estimated
Sun 12:23:04 PM 39.7897 -104.3339 114° Southeast 313 360 11,400  Level Denver Center
Sun 12:24:00 PM 39.5659 -103.9025 116° Southeast  Level Estimated
Sun 12:24:07 PM 39.7392 -104.1908 115° Southeast 353 406 14,000  Level Denver Center
Sun 12:25:00 PM 39.5062 -103.7491 110° East  Level Estimated
Sun 12:25:09 PM 39.6972 -104.0667 114° Southeast 375 432 16,000  Level Denver Center
Sun 12:26:11 PM 39.6458 -103.9297 116° Southeast 392 451 18,000 1,839 Climbing Denver Center
Sun 12:27:13 PM 39.5928 -103.8000 118° Southeast 405 466 19,800 1,694 Climbing Denver Center
Sun 12:28:15 PM 39.5542 -103.6489 108° East 403 464 21,500 1,500 Climbing Denver Center
Sun 12:29:17 PM 39.5142 -103.4997 109° East 429 494 22,900 1,306 Climbing Denver Center
Sun 12:30:19 PM 39.4742 -103.3472 109° East 442 509 24,200 1,258 Climbing Denver Center
Sun 12:31:21 PM 39.4317 -103.1897 109° East 459 528 25,500 1,161 Climbing Denver Center
Sun 12:32:23 PM 39.3900 -103.0317 109° East 461 531 26,600 919 Climbing Denver Center
Sun 12:33:25 PM 39.3464 -102.8681 109° East 474 545 27,400 919 Climbing Denver Center
Sun 12:34:27 PM 39.2953 -102.6814 109° East 485 558 28,500 1,065 Climbing Denver Center
Sun 12:35:29 PM 39.2525 -102.5197 109° East 494 568 29,600 1,161 Climbing Denver Center
Sun 12:36:31 PM 39.2003 -102.3322 110° East 498 573 30,900 1,113 Climbing Denver Center
Sun 12:37:33 PM 39.1558 -102.1733 110° East 494 568 31,900 1,016 Climbing Denver Center
Sun 12:38:35 PM 39.0833 -101.9989 118° Southeast 500 575 33,000 1,016 Climbing Denver Center
Sun 12:39:37 PM 38.9950 -101.8753 133° Southeast 491 565 34,000 823 Climbing Denver Center
Sun 12:40:39 PM 38.8903 -101.7333 133° Southeast 490 564 34,700 441 Climbing Denver Center
Sun 12:41:53 PM 38.8017 -101.6094 133° Southeast 492 566 35,000 131 Climbing Denver Center
Sun 12:42:56 PM 38.6808 -101.4483 134° Southeast 490 564 35,000  Level Denver Center
Sun 12:43:58 PM 38.5897 -101.3261 134° Southeast 494 568 35,000  Level Denver Center
Sun 12:45:00 PM 38.4833 -101.1844 134° Southeast 495 570 35,000  Level Denver Center
Sun 12:46:02 PM 38.3931 -101.0617 133° Southeast 495 570 35,000  Level Denver Center
Sun 12:47:04 PM 38.2867 -100.9200 134° Southeast 494 568 35,000  Level Denver Center
Sun 12:48:06 PM 38.1953 -100.7992 134° Southeast 493 567 35,000  Level Denver Center
Sun 12:49:08 PM 38.1036 -100.6794 134° Southeast 491 565 35,000  Level Denver Center
Sun 12:49:39 PM 38.0417 -100.5986 134° Southeast 493 567 35,000  Level Kansas City Center
Sun 12:50:43 PM 37.9497 -100.4767 134° Southeast 494 568 35,000  Level Kansas City Center
Sun 12:51:44 PM 37.8564 -100.3556 134° Southeast 496 571 35,000  Level Kansas City Center
Sun 12:52:47 PM 37.7475 -100.2150 134° Southeast 498 573 35,000  Level Kansas City Center
Sun 12:53:49 PM 37.6544 -100.0931 134° Southeast 500 575 35,000  Level Kansas City Center
Sun 12:54:49 PM 37.5442 -99.9517 135° Southeast 504 580 35,000  Level Kansas City Center
Sun 12:55:50 PM 37.4492 -99.8306 135° Southeast 506 582 35,000  Level Kansas City Center
Sun 12:56:54 PM 37.3400 -99.6900 134° Southeast 503 579 35,000  Level Kansas City Center
Sun 12:57:54 PM 37.2458 -99.5711 135° Southeast 502 578 35,000  Level Kansas City Center
Sun 12:58:58 PM 37.1517 -99.4522 135° Southeast 501 577 35,000  Level Kansas City Center
Sun 12:59:58 PM 37.0378 -99.3089 135° Southeast 498 573 35,000  Level Kansas City Center
Sun 01:01:02 PM 36.9400 -99.1858 135° Southeast 496 571 35,000  Level Kansas City Center
Sun 01:02:02 PM 36.8419 -99.0628 135° Southeast 497 572 35,000 -48 Level Kansas City Center
Sun 01:03:06 PM 36.7447 -98.9414 135° Southeast 493 567 34,900  Descending Kansas City Center
Sun 01:04:07 PM 36.6456 -98.8203 136° Southeast 493 567 35,000 48 Climbing Kansas City Center
Sun 01:05:11 PM 36.5475 -98.6978 135° Southeast 495 570 35,000  Level Kansas City Center
Sun 01:06:11 PM 36.4503 -98.5772 135° Southeast 491 565 35,000  Level Kansas City Center
Sun 01:07:01 PM 36.3708 -98.4794 135° Southeast 495 570 35,000  Level Kansas City Center
Sun 01:08:03 PM 36.2522 -98.3336 135° Southeast 496 571 35,000  Level Kansas City Center
Sun 01:09:05 PM 36.1531 -98.2131 136° Southeast 496 571 35,000  Level Kansas City Center
Sun 01:10:09 PM 36.0533 -98.0931 136° Southeast 496 571 35,000  Level Kansas City Center
Sun 01:11:10 PM 35.9525 -97.9706 135° Southeast 495 570 35,000  Level Kansas City Center
Sun 01:12:10 PM 35.8539 -97.8511 136° Southeast 497 572 35,000  Level Kansas City Center
Sun 01:12:54 PM 35.7728 -97.7564 137° Southeast 498 573 35,000  Level Fort Worth Center
Sun 01:13:54 PM 35.6731 -97.6358 136° Southeast 498 573 35,000  Level Fort Worth Center
Sun 01:14:54 PM 35.5731 -97.5183 136° Southeast 498 573 35,000  Level Fort Worth Center
Sun 01:15:54 PM 35.4958 -97.4236 135° Southeast 498 573 35,000  Level Fort Worth Center
Sun 01:16:54 PM 35.3750 -97.2811 136° Southeast 503 579 35,000  Level Fort Worth Center
Sun 01:17:54 PM 35.2831 -97.1744 137° Southeast 498 573 35,000 -50 Level Fort Worth Center
Sun 01:18:54 PM 35.1825 -97.0581 137° Southeast 503 579 34,900 -50 Descending Fort Worth Center
Sun 01:19:54 PM 35.0864 -96.9442 136° Southeast 498 573 34,900 50 Level Fort Worth Center
Sun 01:20:54 PM 34.9856 -96.8281 137° Southeast 498 573 35,000 50 Climbing Fort Worth Center
Sun 01:21:54 PM 34.8869 -96.7125 136° Southeast 498 573 35,000  Level Fort Worth Center
Sun 01:22:54 PM 34.7861 -96.5969 137° Southeast 498 573 35,000  Level Fort Worth Center
Sun 01:23:54 PM 34.6853 -96.4817 137° Southeast 498 573 35,000  Level Fort Worth Center
Sun 01:24:54 PM 34.5842 -96.3642 136° Southeast 498 573 35,000  Level Fort Worth Center
Sun 01:25:54 PM 34.4831 -96.2494 137° Southeast 503 579 35,000  Level Fort Worth Center
Sun 01:26:54 PM 34.3839 -96.1300 135° Southeast 503 579 35,000  Level Fort Worth Center
Sun 01:27:54 PM 34.2947 -95.9983 129° Southeast 503 579 35,000  Level Fort Worth Center
Sun 01:28:54 PM 34.2097 -95.8639 127° Southeast 503 579 35,000  Level Fort Worth Center
Sun 01:29:54 PM 34.1244 -95.7300 128° Southeast 503 579 35,000  Level Fort Worth Center
Sun 01:30:54 PM 34.0347 -95.5789 126° Southeast 508 585 35,000  Level Fort Worth Center
Sun 01:31:54 PM 33.9450 -95.4456 129° Southeast 508 585 35,000  Level Fort Worth Center
Sun 01:32:54 PM 33.8617 -95.3147 127° Southeast 508 585 35,000  Level Fort Worth Center
Sun 01:33:54 PM 33.7717 -95.1822 129° Southeast 508 585 35,000  Level Fort Worth Center
Sun 01:34:54 PM 33.6878 -95.0469 127° Southeast 508 585 35,000  Level Fort Worth Center
Sun 01:35:54 PM 33.6017 -94.9147 128° Southeast 508 585 35,000 -50 Level Fort Worth Center
Sun 01:36:54 PM 33.5178 -94.7850 128° Southeast 508 585 34,900 -50 Descending Fort Worth Center
Sun 01:37:54 PM 33.4314 -94.6506 128° Southeast 508 585 34,900 50 Level Fort Worth Center
Sun 01:38:54 PM 33.3428 -94.5192 129° Southeast 513 590 35,000 50 Climbing Fort Worth Center
Sun 01:39:54 PM 33.2542 -94.3853 128° Southeast 513 590 35,000  Level Fort Worth Center
Sun 01:40:54 PM 33.1531 -94.2647 135° Southeast 508 585 35,000  Level Fort Worth Center
Sun 01:41:54 PM 33.0519 -94.1519 137° Southeast 508 585 35,000  Level Fort Worth Center
Sun 01:42:54 PM 32.9486 -94.0319 136° Southeast 508 585 35,000  Level Fort Worth Center
Sun 01:43:54 PM 32.8475 -93.9169 136° Southeast 508 585 35,000  Level Fort Worth Center
Sun 01:44:54 PM 32.7481 -93.8000 135° Southeast 508 585 35,000  Level Fort Worth Center
Sun 01:45:54 PM 32.6489 -93.6856 136° Southeast 508 585 35,000  Level Fort Worth Center
Sun 01:46:54 PM 32.5472 -93.5689 136° Southeast 503 579 35,000 -29 Level Fort Worth Center
Sun 01:49:20 PM 32.3356 -93.2603 129° Southeast 509 586 34,900  Descending Houston Center
Sun 01:50:22 PM 32.2483 -93.1272 128° Southeast 510 587 35,000 48 Climbing Houston Center
Sun 01:51:24 PM 32.1619 -92.9947 128° Southeast 510 587 35,000  Level Houston Center
Sun 01:52:27 PM 32.0681 -92.8519 128° Southeast 509 586 35,000 -48 Level Houston Center
Sun 01:53:29 PM 31.9814 -92.7239 129° Southeast 502 578 34,900 -48 Descending Houston Center
Sun 01:54:31 PM 31.8947 -92.5906 127° Southeast 508 585 34,900  Level Houston Center
Sun 01:55:33 PM 31.8086 -92.4614 128° Southeast 505 581 34,900  Level Houston Center
Sun 01:56:35 PM 31.7228 -92.3300 128° Southeast 505 581 34,900  Level Houston Center
Sun 01:57:37 PM 31.6167 -92.1739 129° Southeast 507 583 34,900  Level Houston Center
Sun 01:58:39 PM 31.5292 -92.0419 128° Southeast 510 587 34,900 48 Level Houston Center
Sun 01:59:41 PM 31.4556 -91.9044 122° Southeast 520 598 35,000 48 Climbing Houston Center
Sun 02:00:43 PM 31.3872 -91.7550 118° Southeast 520 598 35,000  Level Houston Center
Sun 02:01:46 PM 31.3033 -91.5772 119° Southeast 520 598 35,000  Level Houston Center
Sun 02:02:48 PM 31.2347 -91.4289 118° Southeast 517 595 35,000 -48 Level Houston Center
Sun 02:03:50 PM 31.1611 -91.2733 119° Southeast 516 594 34,900  Descending Houston Center
Sun 02:05:54 PM 31.0214 -90.9819 119° Southeast 515 593 35,000  Climbing Houston Center
Sun 02:06:56 PM 30.9533 -90.8367 119° Southeast 512 589 34,900  Descending Houston Center
Sun 02:07:58 PM 30.8847 -90.6919 119° Southeast 513 590 35,000  Climbing Houston Center
Sun 02:09:00 PM 30.8147 -90.5478 119° Southeast 512 589 34,900  Descending Houston Center
Sun 02:10:02 PM 30.7308 -90.3731 119° Southeast 514 592 35,000 48 Climbing Houston Center
Sun 02:11:05 PM 30.6606 -90.2275 119° Southeast 518 596 35,000  Level Houston Center
Sun 02:12:07 PM 30.5886 -90.0806 120° Southeast 521 600 35,000  Level Houston Center
Sun 02:13:09 PM 30.5172 -89.9353 120° Southeast 519 597 35,000  Level Houston Center
Sun 02:14:11 PM 30.4439 -89.7917 121° Southeast 519 597 35,000 -48 Level Houston Center
Sun 02:15:13 PM 30.3644 -89.6386 121° Southeast 521 600 34,900  Descending Houston Center
Sun 02:16:15 PM 30.2889 -89.4947 121° Southeast 518 596 35,000 48 Climbing Houston Center
Sun 02:17:17 PM 30.2153 -89.3533 121° Southeast 515 593 35,000 -48 Level Houston Center
Sun 02:18:19 PM 30.1264 -89.1842 121° Southeast 516 594 34,900 -48 Descending Houston Center
Sun 02:19:21 PM 30.0539 -89.0456 121° Southeast 505 581 34,900 48 Level Houston Center
Sun 02:20:24 PM 29.9811 -88.9067 121° Southeast 505 581 35,000  Climbing Houston Center
Sun 02:21:26 PM 29.9083 -88.7678 121° Southeast 506 582 34,900 -48 Descending Houston Center
Sun 02:22:28 PM 29.8353 -88.6297 121° Southeast 504 580 34,900  Level Houston Center
Sun 02:23:30 PM 29.7625 -88.4917 121° Southeast 504 580 34,900 48 Level Houston Center
Sun 02:24:32 PM 29.6817 -88.3411 122° Southeast 510 587 35,000 48 Climbing Houston Center
Sun 02:25:34 PM 29.6089 -88.2031 121° Southeast 507 583 35,000  Level Houston Center
Sun 02:26:36 PM 29.5214 -88.0381 121° Southeast 506 582 35,000  Level Houston Center
Sun 02:27:38 PM 29.4458 -87.9025 123° Southeast 506 582 35,000  Level Houston Center
Sun 02:28:41 PM 29.3697 -87.7706 123° Southeast 499 574 35,000 -48 Level Houston Center
Sun 02:29:43 PM 29.2953 -87.6414 123° Southeast 500 575 34,900 -48 Descending Houston Center
Sun 02:30:45 PM 29.2194 -87.5081 123° Southeast 501 577 34,900  Level Houston Center
Sun 02:31:47 PM 29.1297 -87.3481 123° Southeast 499 574 34,900  Level Houston Center
Sun 02:32:08 PM 29.1111 -87.3081 118° Southeast 497 572 34,900 74 Level Jacksonville Center
Sun 02:33:08 PM 29.0703 -87.1589 107° East 503 579 35,000 50 Climbing Jacksonville Center
Sun 02:34:08 PM 29.0272 -87.0028 107° East 503 579 35,000 -50 Level Jacksonville Center
Sun 02:35:08 PM 28.9847 -86.8350 106° East 503 579 34,900 -50 Descending Jacksonville Center
Sun 02:36:08 PM 28.9392 -86.6767 108° East 503 579 34,900  Level Jacksonville Center
Sun 02:37:08 PM 28.8975 -86.5303 108° East 503 579 34,900 -250 Level Jacksonville Center
Sun 02:38:08 PM 28.8561 -86.3772 107° East 503 579 34,400 -700 Descending Jacksonville Center
Sun 02:39:08 PM 28.8142 -86.2264 108° East 503 579 33,500 -1,000 Descending Jacksonville Center
Sun 02:40:08 PM 28.7656 -86.0803 111° Southeast 496 571 32,400 -1,050 Descending Jacksonville Center
Sun 02:41:08 PM 28.7042 -85.9436 117° Southeast 491 565 31,400 -750 Descending Jacksonville Center
Sun 02:42:08 PM 28.6467 -85.8117 116° Southeast 480 552 30,900 -248 Descending Jacksonville Center
Sun 02:43:09 PM 28.5875 -85.6658 115° Southeast 480 552 30,900 50 Level Jacksonville Center
Sun 02:44:08 PM 28.5236 -85.5222 117° Southeast 494 568 31,000  Climbing Jacksonville Center
Sun 02:45:08 PM 28.4683 -85.3744 113° Southeast 499 574 30,900 -50 Descending Jacksonville Center
Sun 02:46:08 PM 28.4125 -85.2267 113° Southeast 499 574 30,900  Level Jacksonville Center
Sun 02:48:03 PM 28.3094 -84.9581 113° Southeast 507 583 30,900  Level Miami Center
Sun 02:49:03 PM 28.2550 -84.8153 113° Southeast 505 581 30,900  Level Miami Center
Sun 02:50:03 PM 28.1964 -84.6700 115° Southeast 505 581 30,900 -50 Level Miami Center
Sun 02:51:03 PM 28.1569 -84.5142 106° East 505 581 30,800 -900 Descending Miami Center
Sun 02:52:03 PM 28.1222 -84.3428 103° East 505 581 29,100 -1,650 Descending Miami Center
Sun 02:53:03 PM 28.0986 -84.1931 100° East 497 572 27,500 -1,550 Descending Miami Center
Sun 02:54:03 PM 28.0744 -84.0528 101° East 473 544 26,000 -2,050 Descending Miami Center
Sun 02:55:03 PM 28.0478 -83.9194 103° East 448 516 23,400 -2,350 Descending Miami Center
Sun 02:56:03 PM 28.0253 -83.7794 100° East 448 516 21,300 -1,750 Descending Miami Center
Sun 02:57:03 PM 27.9983 -83.6486 103° East 437 503 19,900 -1,800 Descending Miami Center
Sun 02:58:03 PM 27.9769 -83.5253 101° East 420 483 17,700 -2,500 Descending Miami Center
Sun 02:59:03 PM 27.9578 -83.3972 100° East 414 476 14,900 -2,950 Descending Miami Center
Sun 03:00:03 PM 27.9342 -83.2761 102° East 408 470 11,800 -2,380 Descending Miami Center
Sun 03:01:04 PM 27.9158 -83.1672 101° East 378 435 10,100 -1,550 Descending Miami Center
Sun 03:02:03 PM 27.9467 -83.0819 68° East 303 349 8,700 -1,412 Descending Miami Center
Sun 03:03:03 PM 27.9836 -82.9994 63° Northeast 297 342 7,300 -900 Descending Miami Center
Sun 03:04:03 PM 28.0206 -82.9169 63° Northeast 292 336 6,900 -162 Descending Miami Center
Sun 03:04:54 PM 28.0500 -82.8500 63° Northeast 290 334 7,000 -343 Climbing Tampa TRACON
Sun 03:05:48 PM 28.0500 -82.7667 90° East 283 326 6,300 -1,053 Descending Tampa TRACON
Sun 03:06:48 PM 28.0167 -82.6833 114° Southeast 272 313 5,000 -650 Descending Tampa TRACON
Sun 03:07:48 PM 28.0000 -82.6167 106° East 238 274 5,000 -500 Level Tampa TRACON
Sun 03:08:48 PM 27.9333 -82.6167 180° South 230 265 4,000 -1,650 Descending Tampa TRACON
Sun 03:09:48 PM 27.9000 -82.5833 139° Southeast 202 232 1,700 -2,300 Descending Tampa TRACON

Login

Don't have an account? Register now (free) for customized features, flight alerts, and more!